Terminal Aerodrome Forecast
Issued by NWS

Home | Current Version | Previous Version | Text Only | Print | Product List | Glossary On
Versions: 1 2 3 4 5 6 7 8 9 10 11 12 13 14 15 16 17 18 19 20 21 22 23 24 25 26 27 28 29 30 31 32 33 34
000
FTUS46 KLOX 281700
TAFLAX
TAF
KLAX 281735Z 2818/2924 12004KT 4SM HZ FEW007
     FM281900 25012KT 6SM HZ SKC
     FM290400 VRB03KT P6SM SKC
     FM290700 VRB03KT 5SM BR BKN007
     FM291100 VRB03KT 1SM BR OVC003
     FM291700 23006KT 5SM HZ SCT004 BKN250
     FM292000 25010KT 6SM HZ SCT250=

USA.gov is the U.S. government's official web portal to all federal, state and local government web resources and services.